Time;durP1;ratioP1;P1;durP2;ratioP2;P2;SDS_P1;SDS_P2;PMS_P1;PMS_P2;Temp;Humidity;BMP_temperature;BMP_pressure;BME280_temperature;BME280_humidity;BME280_pressure;Samples;Min_cycle;Max_cycle;Signal;HPM_P1;HPM_P2
2021/12/10 00:00:25;;;;;;;27.58;18.92;;;154.00;1920.00;;;;;;5073433;28;20029;-60
2021/12/10 00:02:51;;;;;;;23.80;15.57;;;154.00;1945.60;;;;;;5073623;28;20471;-60
2021/12/10 00:05:23;;;;;;;25.00;16.05;;;154.00;1920.00;;;;;;5073510;28;20033;-60
2021/12/10 00:07:50;;;;;;;20.48;14.18;;;153.90;1920.00;;;;;;5073515;28;20359;-60
2021/12/10 00:10:23;;;;;;;18.30;12.20;;;153.80;1945.60;;;;;;5073239;28;20035;-59
2021/12/10 00:12:51;;;;;;;20.38;12.95;;;153.80;1945.60;;;;;;5073321;28;20033;-58
2021/12/10 00:15:21;;;;;;;26.30;16.70;;;153.80;1945.60;;;;;;5073224;28;20489;-61
2021/12/10 00:17:47;;;;;;;25.98;16.38;;;153.80;2022.40;;;;;;5073294;28;20489;-60
2021/12/10 00:20:14;;;;;;;23.50;15.38;;;153.90;2048.00;;;;;;5073138;28;20031;-59
2021/12/10 00:22:54;;;;;;;22.90;15.07;;;153.90;2099.20;;;;;;5073522;28;20032;-60
2021/12/10 00:25:24;;;;;;;19.08;13.00;;;154.10;1996.80;;;;;;5073542;28;20066;-60
2021/12/10 00:27:53;;;;;;;21.15;13.93;;;154.00;1971.20;;;;;;5073322;28;20100;-58
2021/12/10 00:30:29;;;;;;;19.45;13.45;;;154.00;1894.40;;;;;;5074849;28;20020;-60
2021/12/10 00:33:14;;;;;;;21.35;13.38;;;153.90;1894.40;;;;;;5059197;28;20358;-60
2021/12/10 00:35:42;;;;;;;23.70;13.70;;;153.90;1945.60;;;;;;5077047;28;20036;-60
2021/12/10 00:38:09;;;;;;;18.58;12.88;;;153.80;1945.60;;;;;;5077011;28;20024;-60
2021/12/10 00:40:35;;;;;;;17.20;12.90;;;153.80;1920.00;;;;;;5076859;28;20477;-60
2021/12/10 00:43:02;;;;;;;17.58;11.95;;;153.60;1920.00;;;;;;5076523;28;20075;-60
2021/12/10 00:45:28;;;;;;;18.25;11.93;;;153.70;1920.00;;;;;;5076440;28;20029;-58
2021/12/10 00:47:55;;;;;;;18.17;12.10;;;153.70;1920.00;;;;;;5076876;28;20024;-60
2021/12/10 00:50:26;;;;;;;22.17;13.57;;;153.70;1920.00;;;;;;5076842;28;20052;-60
2021/12/10 00:52:53;;;;;;;24.73;16.13;;;153.60;1971.20;;;;;;5076619;28;20431;-60
2021/12/10 00:55:22;;;;;;;86.38;18.02;;;153.60;2048.00;;;;;;5076580;28;20036;-58
2021/12/10 00:57:48;;;;;;;20.45;13.40;;;153.70;2252.80;;;;;;5076453;28;20069;-60
2021/12/10 01:00:22;;;;;;;18.30;12.70;;;153.70;2124.80;;;;;;5076297;28;20078;-60
2021/12/10 01:02:48;;;;;;;18.83;13.03;;;153.80;2022.40;;;;;;5076349;28;20021;-58
2021/12/10 01:05:15;;;;;;;18.98;12.73;;;153.70;1945.60;;;;;;5076309;28;20029;-60
2021/12/10 01:07:43;;;;;;;20.77;14.45;;;153.70;1894.40;;;;;;5076384;28;20020;-59
2021/12/10 01:10:15;;;;;;;19.27;13.65;;;128.90;1920.00;;;;;;5076178;28;20417;-60
2021/12/10 01:12:46;;;;;;;20.50;13.55;;;128.80;1971.20;;;;;;5076356;28;20040;-60
2021/12/10 01:23:56;;;;;;;21.55;14.98;;;128.70;1945.60;;;;;;5076286;28;20405;-60
2021/12/10 01:26:51;;;;;;;21.15;14.00;;;128.70;1971.20;;;;;;5076067;28;20025;-60
2021/12/10 01:29:19;;;;;;;;;;;128.60;1971.20;;;;;;5076383;28;20051;-61
2021/12/10 01:31:46;;;;;;;55.33;15.77;;;128.70;2048.00;;;;;;5075883;28;20003;-60
2021/12/10 01:34:12;;;;;;;20.00;13.38;;;128.80;2201.60;;;;;;5075831;28;20032;-60
2021/12/10 01:36:38;;;;;;;17.75;12.18;;;128.90;2176.00;;;;;;5075844;28;20032;-60
2021/12/10 01:39:13;;;;;;;17.80;12.25;;;128.90;2048.00;;;;;;5076150;28;20031;-60
2021/12/10 01:41:42;;;;;;;17.70;11.43;;;128.90;1971.20;;;;;;5074471;28;20047;-59
2021/12/10 01:44:16;;;;;;;18.92;12.98;;;153.60;1920.00;;;;;;5075665;28;20066;-60
2021/12/10 01:46:46;;;;;;;18.40;12.77;;;128.80;1920.00;;;;;;5075546;28;20091;-60
2021/12/10 01:49:13;;;;;;;17.13;11.52;;;128.60;1971.20;;;;;;5075496;28;20056;-60
2021/12/10 01:51:40;;;;;;;17.75;12.20;;;128.50;1971.20;;;;;;5075606;28;20020;-59
2021/12/10 01:54:14;;;;;;;17.58;12.20;;;128.40;1971.20;;;;;;5075472;28;20086;-60
2021/12/10 01:56:40;;;;;;;18.15;12.40;;;128.40;1971.20;;;;;;5075322;28;20043;-61
2021/12/10 01:59:10;;;;;;;20.90;13.73;;;128.40;1971.20;;;;;;5075175;28;20423;-60
2021/12/10 02:01:41;;;;;;;21.63;13.88;;;128.40;1971.20;;;;;;5075145;28;20035;-60
2021/12/10 02:04:17;;;;;;;24.80;14.52;;;128.40;1971.20;;;;;;5075344;28;20024;-60
2021/12/10 02:06:43;;;;;;;27.83;14.60;;;128.50;1996.80;;;;;;5075528;28;20021;-60
2021/12/10 02:09:10;;;;;;;51.05;18.25;;;128.60;2124.80;;;;;;5075344;28;20082;-60
2021/12/10 02:11:36;;;;;;;23.98;16.05;;;128.80;2252.80;;;;;;5075393;28;20032;-60
2021/12/10 02:14:03;;;;;;;21.45;14.85;;;128.90;2227.20;;;;;;5075293;28;20029;-60
2021/12/10 02:16:29;;;;;;;19.55;13.23;;;153.60;2073.60;;;;;;5074941;28;20033;-60
2021/12/10 02:18:55;;;;;;;20.95;13.88;;;153.60;1996.80;;;;;;5075050;28;20032;-60
2021/12/10 02:21:24;;;;;;;19.52;13.15;;;153.70;1945.60;;;;;;5075086;28;20027;-60
2021/12/10 02:23:57;;;;;;;20.20;13.40;;;128.90;1945.60;;;;;;5074835;28;20118;-60
2021/12/10 02:26:32;;;;;;;22.30;13.10;;;128.90;1945.60;;;;;;5074768;28;20103;-60
2021/12/10 02:28:58;;;;;;;19.30;12.68;;;128.90;1971.20;;;;;;5074902;28;20497;-59
2021/12/10 02:31:25;;;;;;;18.77;13.13;;;128.70;1945.60;;;;;;5074647;28;20074;-60
2021/12/10 02:33:51;;;;;;;21.25;14.02;;;128.70;1945.60;;;;;;5074625;28;20028;-59
2021/12/10 02:36:16;;;;;;;25.45;15.77;;;128.60;1945.60;;;;;;5074513;28;20047;-60
2021/12/10 02:38:48;;;;;;;23.63;15.48;;;128.60;1971.20;;;;;;5074606;28;20031;-59
2021/12/10 02:41:17;;;;;;;24.02;14.98;;;128.50;1971.20;;;;;;5074699;28;20025;-60
2021/12/10 02:43:43;;;;;;;31.13;16.27;;;128.50;1996.80;;;;;;5074353;28;20086;-60
2021/12/10 02:46:09;;;;;;;37.20;15.57;;;128.50;2073.60;;;;;;5074348;28;20536;-60
2021/12/10 02:48:35;;;;;;;23.95;15.23;;;128.60;2176.00;;;;;;5074454;28;20024;-60
2021/12/10 02:51:03;;;;;;;21.77;13.50;;;128.80;2150.40;;;;;;5074450;28;20370;-57
2021/12/10 02:53:34;;;;;;;17.75;12.32;;;128.90;2073.60;;;;;;5074175;28;20081;-60
2021/12/10 02:56:00;;;;;;;19.92;13.00;;;128.90;1971.20;;;;;;5074264;28;20048;-61
2021/12/10 02:58:26;;;;;;;22.70;14.43;;;153.60;1920.00;;;;;;5074536;28;20021;-60
2021/12/10 03:00:59;;;;;;;24.52;15.38;;;128.90;1920.00;;;;;;5073869;28;20040;-59
2021/12/10 03:03:25;;;;;;;20.15;13.23;;;128.70;1945.60;;;;;;5073961;28;20027;-58
2021/12/10 03:05:52;;;;;;;17.80;12.13;;;128.50;1971.20;;;;;;5073932;28;20127;-58
2021/12/10 03:08:18;;;;;;;17.67;12.27;;;128.50;1971.20;;;;;;5074328;28;20032;-60
2021/12/10 03:10:44;;;;;;;20.05;12.00;;;128.40;1945.60;;;;;;5074047;28;20367;-60
2021/12/10 03:13:11;;;;;;;19.80;12.95;;;128.40;1971.20;;;;;;5074067;28;20055;-60
2021/12/10 03:15:39;;;;;;;19.30;12.80;;;128.40;1971.20;;;;;;5073848;28;20028;-59
2021/12/10 03:18:13;;;;;;;18.70;12.80;;;128.40;1996.80;;;;;;5074072;28;20038;-60
2021/12/10 03:20:39;;;;;;;22.40;14.65;;;128.50;2022.40;;;;;;5074275;28;20024;-59
2021/12/10 03:23:06;;;;;;;116.97;20.17;;;128.50;2099.20;;;;;;5073955;28;20418;-59
2021/12/10 03:25:32;;;;;;;23.58;15.77;;;128.70;2227.20;;;;;;5073992;28;20426;-60
2021/12/10 03:27:59;;;;;;;22.02;13.95;;;128.80;2150.40;;;;;;5074169;28;20370;-60
2021/12/10 03:30:29;;;;;;;20.95;13.95;;;128.90;2048.00;;;;;;5073511;28;20533;-59
2021/12/10 03:32:56;;;;;;;20.65;12.93;;;128.80;2022.40;;;;;;5073754;28;20107;-60
2021/12/10 03:35:29;;;;;;;21.70;14.15;;;128.80;1971.20;;;;;;5073735;28;20020;-58
2021/12/10 03:37:56;;;;;;;21.33;13.55;;;128.70;1971.20;;;;;;5073626;28;20036;-59
2021/12/10 03:40:23;;;;;;;22.08;14.00;;;128.50;1996.80;;;;;;5073827;28;20357;-58
2021/12/10 03:42:50;;;;;;;20.38;13.25;;;128.40;2022.40;;;;;;5073383;28;20072;-60
2021/12/10 03:45:17;;;;;;;19.90;13.45;;;128.40;1996.80;;;;;;5073297;28;20024;-60
2021/12/10 03:47:43;;;;;;;20.77;12.93;;;128.40;1971.20;;;;;;5073669;28;20479;-61
2021/12/10 03:50:12;;;;;;;21.13;13.55;;;128.40;1996.80;;;;;;5073877;28;20110;-58
2021/12/10 03:52:39;;;;;;;22.00;13.48;;;128.40;2022.40;;;;;;5073459;28;20021;-60
2021/12/10 03:55:06;;;;;;;19.58;13.18;;;128.40;2022.40;;;;;;5073637;28;20374;-60
2021/12/10 03:57:32;;;;;;;22.23;14.32;;;128.40;2048.00;;;;;;5073023;28;20040;-59
2021/12/10 03:59:58;;;;;;;24.77;15.18;;;128.40;2124.80;;;;;;5073562;28;20378;-59
2021/12/10 04:02:24;;;;;;;23.17;14.75;;;128.50;2176.00;;;;;;5073155;28;20032;-58
2021/12/10 04:04:51;;;;;;;23.00;15.05;;;128.60;2150.40;;;;;;5074516;28;20020;-60
2021/12/10 04:07:20;;;;;;;24.27;16.83;;;128.70;2073.60;;;;;;5077553;28;20424;-58
2021/12/10 04:09:47;;;;;;;27.20;16.45;;;128.70;2022.40;;;;;;5077319;28;20043;-60
2021/12/10 04:12:14;;;;;;;23.85;16.10;;;128.70;1996.80;;;;;;5077367;28;20021;-60
2021/12/10 04:14:46;;;;;;;34.03;21.45;;;128.50;1996.80;;;;;;5077370;28;20424;-60
2021/12/10 04:17:11;;;;;;;32.47;19.17;;;128.40;2022.40;;;;;;5077357;28;20087;-60
2021/12/10 04:19:38;;;;;;;34.40;21.40;;;128.40;2022.40;;;;;;5077109;28;20024;-60
2021/12/10 04:22:06;;;;;;;31.58;19.65;;;128.40;1996.80;;;;;;5077048;28;20024;-59
2021/12/10 04:24:34;;;;;;;28.05;17.48;;;128.30;2022.40;;;;;;5077296;28;20024;-59
2021/12/10 04:27:03;;;;;;;28.05;17.80;;;128.40;2022.40;;;;;;5077014;28;20492;-59
2021/12/10 04:29:30;;;;;;;25.25;16.02;;;128.40;2022.40;;;;;;5076923;28;20025;-60
2021/12/10 04:31:57;;;;;;;29.10;17.77;;;128.40;2048.00;;;;;;5077077;28;20107;-60
2021/12/10 04:34:25;;;;;;;32.58;17.73;;;128.30;2073.60;;;;;;5077100;28;20048;-60
2021/12/10 04:36:52;;;;;;;104.97;22.70;;;128.40;2150.40;;;;;;5077142;28;20167;-60
2021/12/10 04:39:19;;;;;;;29.75;17.33;;;128.60;2252.80;;;;;;5090035;28;20020;-57
2021/12/10 04:41:45;;;;;;;25.02;17.33;;;128.70;2201.60;;;;;;5096204;28;20481;-59
2021/12/10 04:44:11;;;;;;;25.25;15.43;;;128.70;2099.20;;;;;;5077768;28;20043;-60
2021/12/10 04:46:37;;;;;;;24.15;15.18;;;128.80;1996.80;;;;;;5096652;28;20032;-60
2021/12/10 04:49:08;;;;;;;26.98;16.20;;;128.80;1971.20;;;;;;5096798;28;20408;-60
2021/12/10 04:51:40;;;;;;;28.67;16.83;;;128.50;1971.20;;;;;;5097061;28;20035;-60
2021/12/10 04:54:09;;;;;;;25.13;16.90;;;128.70;2073.60;;;;;;5097096;28;20343;-60
2021/12/10 04:56:36;;;;;;;27.33;16.58;;;128.70;2073.60;;;;;;5096686;28;20039;-60
2021/12/10 04:59:04;;;;;;;26.88;16.65;;;128.70;2073.60;;;;;;5096888;28;20031;-60
2021/12/10 05:01:31;;;;;;;25.17;16.38;;;128.60;2099.20;;;;;;5096621;28;20031;-61
2021/12/10 05:03:57;;;;;;;28.23;17.75;;;128.60;2099.20;;;;;;5096929;28;20089;-60
2021/12/10 05:06:23;;;;;;;27.63;17.30;;;128.70;2099.20;;;;;;5096519;28;20036;-60
2021/12/10 05:08:49;;;;;;;27.33;18.10;;;128.70;2099.20;;;;;;5096773;28;20016;-60
2021/12/10 05:11:16;;;;;;;29.05;18.25;;;128.60;2099.20;;;;;;5096589;28;20474;-60
2021/12/10 05:13:45;;;;;;;30.63;18.92;;;128.70;2099.20;;;;;;5096620;28;20050;-60
2021/12/10 05:16:13;;;;;;;28.70;18.27;;;128.60;2099.20;;;;;;5096085;28;20052;-60
2021/12/10 05:18:44;;;;;;;32.88;19.70;;;128.70;2099.20;;;;;;5096514;28;20025;-60
2021/12/10 05:21:11;;;;;;;26.45;18.15;;;128.70;2099.20;;;;;;5096402;28;20016;-60
2021/12/10 05:23:37;;;;;;;26.13;17.55;;;128.70;2099.20;;;;;;5096378;28;20057;-60
2021/12/10 05:26:04;;;;;;;25.73;16.90;;;128.70;2099.20;;;;;;5095905;28;20055;-60
2021/12/10 05:28:31;;;;;;;26.58;18.48;;;128.70;2099.20;;;;;;5096411;28;20032;-60
2021/12/10 05:30:57;;;;;;;27.52;18.25;;;128.70;2099.20;;;;;;5096065;28;20024;-60
2021/12/10 05:33:24;;;;;;;29.05;18.00;;;128.70;2099.20;;;;;;5096009;28;20466;-60
2021/12/10 05:35:51;;;;;;;36.38;20.23;;;128.70;2099.20;;;;;;5095632;28;20025;-59
2021/12/10 05:38:20;;;;;;;47.80;26.08;;;128.70;2099.20;;;;;;5096099;28;20508;-61
2021/12/10 05:40:50;;;;;;;48.40;26.08;;;128.70;2124.80;;;;;;5096186;28;20032;-60
2021/12/10 05:43:17;;;;;;;48.20;25.70;;;128.70;2099.20;;;;;;5095713;28;20047;-60
2021/12/10 05:45:44;;;;;;;51.45;28.48;;;128.70;2099.20;;;;;;5095925;28;20114;-59
2021/12/10 05:48:11;;;;;;;54.20;31.33;;;128.80;2099.20;;;;;;5095919;28;20028;-60
2021/12/10 05:50:37;;;;;;;63.78;34.78;;;128.80;2099.20;;;;;;5095706;28;20020;-59
2021/12/10 05:53:04;;;;;;;73.53;42.88;;;128.80;2099.20;;;;;;5095590;28;20035;-59
2021/12/10 05:55:30;;;;;;;108.75;59.88;;;128.80;2099.20;;;;;;5095668;28;20044;-59
2021/12/10 05:57:56;;;;;;;110.85;63.85;;;128.80;2099.20;;;;;;5095631;28;20105;-60
2021/12/10 06:00:29;;;;;;;80.57;48.03;;;128.90;2099.20;;;;;;5095541;28;20020;-61
2021/12/10 06:02:55;;;;;;;58.22;35.33;;;128.90;2099.20;;;;;;5095449;28;20465;-60
2021/12/10 06:05:22;;;;;;;59.63;34.03;;;128.90;2099.20;;;;;;5095317;28;20035;-60
2021/12/10 06:07:48;;;;;;;62.30;36.13;;;128.90;2099.20;;;;;;5095456;28;20023;-60
2021/12/10 06:10:16;;;;;;;81.68;40.80;;;128.90;2099.20;;;;;;5076549;28;20078;-57
2021/12/10 06:12:43;;;;;;;93.95;43.75;;;128.90;2099.20;;;;;;5095274;28;20604;-60
2021/12/10 06:15:10;;;;;;;76.65;38.65;;;128.90;2099.20;;;;;;5095348;28;20099;-61
2021/12/10 06:17:36;;;;;;;65.50;37.38;;;128.90;2099.20;;;;;;5095140;28;20081;-60
2021/12/10 06:20:05;;;;;;;69.03;40.33;;;128.90;2073.60;;;;;;5095235;28;20032;-59
2021/12/10 06:22:30;;;;;;;67.80;39.20;;;128.90;2099.20;;;;;;5095072;28;20020;-60
2021/12/10 06:24:56;;;;;;;85.63;47.05;;;128.90;2099.20;;;;;;5095294;28;20023;-60
2021/12/10 06:27:22;;;;;;;96.15;47.38;;;153.60;2099.20;;;;;;5094490;28;20051;-59
2021/12/10 06:29:48;;;;;;;91.85;45.30;;;153.60;2073.60;;;;;;5094749;28;20031;-60
2021/12/10 06:32:14;;;;;;;86.18;43.75;;;153.60;2099.20;;;;;;5094697;28;20024;-59
2021/12/10 06:34:39;;;;;;;73.30;38.40;;;153.60;2073.60;;;;;;5093692;28;20072;-58
2021/12/10 06:37:06;;;;;;;61.60;33.60;;;153.60;2073.60;;;;;;5083071;28;20032;-59
2021/12/10 06:39:33;;;;;;;53.00;30.27;;;153.60;2073.60;;;;;;5085305;28;20020;-59
2021/12/10 06:41:59;;;;;;;78.13;36.20;;;153.60;2073.60;;;;;;5085461;28;20024;-60
2021/12/10 06:44:24;;;;;;;111.65;50.33;;;153.60;2073.60;;;;;;5082946;28;20043;-61
2021/12/10 06:46:51;;;;;;;89.22;41.33;;;153.60;2073.60;;;;;;5085144;28;20111;-57
2021/12/10 06:49:18;;;;;;;76.38;34.78;;;153.60;2073.60;;;;;;5084069;28;20021;-57
2021/12/10 06:51:45;;;;;;;70.72;34.55;;;153.60;2073.60;;;;;;5082870;28;20024;-57
2021/12/10 06:54:11;;;;;;;59.70;29.75;;;153.60;2073.60;;;;;;5085087;28;20023;-59
2021/12/10 06:56:37;;;;;;;47.25;26.15;;;153.60;2073.60;;;;;;5083826;28;20087;-60
2021/12/10 06:59:06;;;;;;;34.10;20.92;;;153.60;2073.60;;;;;;5082485;28;20108;-60
2021/12/10 07:01:39;;;;;;;42.97;24.35;;;153.60;2073.60;;;;;;5084661;28;20542;-60
2021/12/10 07:04:10;;;;;;;36.03;21.42;;;153.60;2073.60;;;;;;5085020;28;20093;-60
2021/12/10 07:06:38;;;;;;;54.70;37.50;;;153.60;2073.60;;;;;;5083619;28;20031;-59
2021/12/10 07:09:11;;;;;;;97.40;73.07;;;153.60;2073.60;;;;;;5082555;28;20474;-60
2021/12/10 07:11:36;;;;;;;124.50;92.65;;;153.60;2073.60;;;;;;5084764;28;20047;-60
2021/12/10 07:14:03;;;;;;;94.72;71.40;;;153.60;2073.60;;;;;;5084509;28;20021;-60
2021/12/10 07:16:30;;;;;;;94.30;67.57;;;153.60;2073.60;;;;;;5075424;28;20061;-59
2021/12/10 07:18:58;;;;;;;61.08;44.97;;;153.60;2073.60;;;;;;5083871;28;20016;-58
2021/12/10 07:21:26;;;;;;;65.22;45.67;;;153.60;2073.60;;;;;;5084424;28;20382;-60
2021/12/10 07:23:53;;;;;;;57.03;42.10;;;153.60;2099.20;;;;;;5083006;28;20020;-60
2021/12/10 07:26:19;;;;;;;47.90;33.00;;;128.90;2099.20;;;;;;5083179;28;20008;-59
2021/12/10 07:28:45;;;;;;;71.93;50.33;;;153.60;2073.60;;;;;;5084093;28;20137;-59
2021/12/10 07:31:11;;;;;;;61.65;46.65;;;153.60;2073.60;;;;;;5084557;28;20025;-60
2021/12/10 07:33:37;;;;;;;52.10;37.85;;;128.90;2073.60;;;;;;5081591;28;20032;-59
2021/12/10 07:36:05;;;;;;;53.15;34.50;;;153.60;2073.60;;;;;;5079826;28;20028;-60
2021/12/10 07:38:31;;;;;;;112.65;59.00;;;128.90;2099.20;;;;;;5081340;28;20020;-60
2021/12/10 07:40:57;;;;;;;89.47;46.90;;;128.90;2099.20;;;;;;5083404;28;20032;-58
2021/12/10 07:43:23;;;;;;;90.13;45.42;;;128.90;2099.20;;;;;;5082068;28;20094;-57
2021/12/10 07:45:51;;;;;;;179.40;79.47;;;128.90;2099.20;;;;;;5090644;28;20082;-68
2021/12/10 07:48:20;;;;;;;109.93;52.45;;;128.90;2099.20;;;;;;5074586;28;20450;-63
2021/12/10 07:50:58;;;;;;;54.15;30.17;;;128.90;2099.20;;;;;;5081423;28;20028;-66
2021/12/10 07:53:25;;;;;;;37.67;22.95;;;128.90;2099.20;;;;;;5073367;28;20021;-68
2021/12/10 07:55:51;;;;;;;36.35;22.67;;;153.60;2099.20;;;;;;5073686;28;20060;-63
2021/12/10 07:58:18;;;;;;;42.30;26.92;;;128.90;2099.20;;;;;;5073550;28;20029;-66
2021/12/10 08:00:47;;;;;;;41.05;26.23;;;128.90;2099.20;;;;;;5073483;28;20021;-68
2021/12/10 08:03:13;;;;;;;35.85;25.02;;;128.90;2099.20;;;;;;5073506;28;20492;-59
2021/12/10 08:05:40;;;;;;;69.00;24.70;;;128.90;2099.20;;;;;;5073131;28;20021;-59
2021/12/10 08:08:06;;;;;;;35.80;21.85;;;153.60;2099.20;;;;;;5073255;28;20527;-59
2021/12/10 08:10:34;;;;;;;36.83;23.08;;;153.70;2099.20;;;;;;5073580;28;20370;-59
2021/12/10 08:13:00;;;;;;;33.50;21.42;;;153.70;2099.20;;;;;;5073411;28;20028;-59
2021/12/10 08:15:27;;;;;;;50.97;33.38;;;153.70;2099.20;;;;;;5073492;28;20020;-59
2021/12/10 08:17:53;;;;;;;41.60;23.88;;;153.70;2099.20;;;;;;5073273;28;20398;-59
2021/12/10 08:20:22;;;;;;;32.55;21.25;;;153.70;2099.20;;;;;;5055415;28;20036;-57
2021/12/10 08:22:49;;;;;;;94.50;55.53;;;153.80;2073.60;;;;;;5073365;28;20027;-58
2021/12/10 08:25:16;;;;;;;167.85;95.13;;;153.80;2073.60;;;;;;5073434;28;20033;-59
2021/12/10 08:27:42;;;;;;;116.90;70.38;;;153.80;2073.60;;;;;;5073290;28;20076;-58
2021/12/10 08:30:11;;;;;;;82.07;52.70;;;153.70;2073.60;;;;;;5072938;28;20090;-60
2021/12/10 08:32:38;;;;;;;59.53;39.35;;;153.70;2073.60;;;;;;5073249;28;20025;-59
2021/12/10 08:35:07;;;;;;;54.10;35.33;;;153.70;2073.60;;;;;;5073223;28;20082;-57
2021/12/10 08:37:33;;;;;;;42.08;28.35;;;153.80;2073.60;;;;;;5073228;28;20036;-59
2021/12/10 08:39:59;;;;;;;36.10;25.65;;;153.80;2073.60;;;;;;5073283;28;20351;-59
2021/12/10 08:42:25;;;;;;;43.30;28.77;;;153.80;2073.60;;;;;;5072963;28;20044;-59
2021/12/10 08:44:52;;;;;;;30.65;21.38;;;153.90;2073.60;;;;;;5072676;28;20028;-59
2021/12/10 08:47:18;;;;;;;38.45;26.58;;;153.90;2073.60;;;;;;5073267;28;20041;-57
2021/12/10 08:49:44;;;;;;;50.25;31.27;;;153.90;2073.60;;;;;;5073004;28;20032;-59
2021/12/10 08:52:14;;;;;;;44.88;27.35;;;153.90;2073.60;;;;;;5076760;28;20032;-58
2021/12/10 08:54:41;;;;;;;42.97;25.92;;;153.90;2048.00;;;;;;5076614;28;20021;-59
2021/12/10 08:57:09;;;;;;;38.00;23.90;;;153.90;2073.60;;;;;;5076682;28;20363;-59
2021/12/10 08:59:36;;;;;;;31.52;20.42;;;153.70;2073.60;;;;;;5076480;28;20028;-58
2021/12/10 09:02:04;;;;;;;43.67;26.05;;;153.80;2073.60;;;;;;5076469;28;20044;-59
2021/12/10 09:04:32;;;;;;;89.85;57.83;;;153.70;2073.60;;;;;;5076490;28;20021;-57
2021/12/10 09:07:03;;;;;;;128.23;79.65;;;153.70;2099.20;;;;;;5076587;28;20035;-57
2021/12/10 09:09:30;;;;;;;126.70;82.63;;;153.70;2099.20;;;;;;5076217;28;20085;-60
2021/12/10 09:11:59;;;;;;;113.30;76.93;;;153.70;2099.20;;;;;;5076213;28;20470;-59
2021/12/10 09:14:31;;;;;;;175.95;118.75;;;153.90;2073.60;;;;;;5076342;28;20028;-59
2021/12/10 09:17:01;;;;;;;163.75;108.20;;;153.90;2073.60;;;;;;5076390;28;20043;-59
2021/12/10 09:19:28;;;;;;;103.88;69.85;;;153.90;2099.20;;;;;;5076759;28;20024;-60
2021/12/10 09:21:56;;;;;;;92.75;61.10;;;153.90;2099.20;;;;;;5076126;28;20020;-59
2021/12/10 09:24:23;;;;;;;114.43;84.88;;;153.90;2099.20;;;;;;5076048;28;20016;-59
2021/12/10 09:26:56;;;;;;;116.85;78.70;;;153.90;2099.20;;;;;;5076042;28;20027;-59
2021/12/10 09:29:25;;;;;;;77.15;52.78;;;153.90;2099.20;;;;;;5076215;28;20074;-59
2021/12/10 09:31:52;;;;;;;61.92;43.40;;;153.90;2099.20;;;;;;5076037;28;20095;-58
2021/12/10 09:34:18;;;;;;;37.63;26.67;;;154.00;2099.20;;;;;;5075944;28;20039;-60
2021/12/10 09:36:46;;;;;;;53.63;33.40;;;154.00;2099.20;;;;;;5075978;28;20036;-60
2021/12/10 09:39:15;;;;;;;49.67;29.05;;;154.00;2099.20;;;;;;5076014;28;20032;-60
2021/12/10 09:41:41;;;;;;;45.38;27.48;;;154.00;2099.20;;;;;;5075939;28;20056;-59
2021/12/10 09:44:08;;;;;;;35.45;23.20;;;154.00;2099.20;;;;;;5075655;28;20044;-59
2021/12/10 09:46:36;;;;;;;37.80;24.05;;;154.00;2073.60;;;;;;5075594;28;20068;-59
2021/12/10 09:49:05;;;;;;;39.22;24.10;;;154.10;2099.20;;;;;;5075618;28;20058;-59
2021/12/10 09:51:35;;;;;;;38.60;23.50;;;154.10;2099.20;;;;;;5057535;28;20036;-58
2021/12/10 09:54:05;;;;;;;35.03;22.88;;;154.10;2073.60;;;;;;5075516;28;20441;-59
2021/12/10 09:56:31;;;;;;;33.28;21.75;;;154.20;2099.20;;;;;;5075719;28;20039;-59
2021/12/10 09:58:58;;;;;;;31.95;21.35;;;154.20;2099.20;;;;;;5075375;28;20466;-59
2021/12/10 10:01:30;;;;;;;38.45;24.05;;;154.20;2099.20;;;;;;5075086;28;20032;-59
2021/12/10 10:04:01;;;;;;;34.78;22.55;;;154.20;2073.60;;;;;;5075224;28;20028;-59
2021/12/10 10:06:37;;;;;;;42.08;27.85;;;154.20;2099.20;;;;;;5075489;28;20032;-59
2021/12/10 10:09:05;;;;;;;37.88;25.52;;;154.20;2099.20;;;;;;5075341;28;20031;-59
2021/12/10 10:11:33;;;;;;;30.70;20.42;;;154.20;2099.20;;;;;;5075496;28;20021;-60
2021/12/10 10:13:59;;;;;;;35.75;23.52;;;154.20;2073.60;;;;;;5075107;28;20104;-59
2021/12/10 10:16:28;;;;;;;41.58;26.15;;;154.20;2073.60;;;;;;5074817;28;20104;-58
2021/12/10 10:18:54;;;;;;;41.92;25.55;;;154.20;2099.20;;;;;;5075109;28;20390;-59
2021/12/10 10:21:39;;;;;;;44.00;25.90;;;154.30;2073.60;;;;;;5075612;28;20017;-59
2021/12/10 10:24:06;;;;;;;39.13;24.58;;;154.20;2099.20;;;;;;5074940;28;20048;-59
2021/12/10 10:26:36;;;;;;;39.92;25.67;;;154.20;2073.60;;;;;;5074987;28;20025;-59
2021/12/10 10:29:09;;;;;;;36.20;23.40;;;154.30;2073.60;;;;;;5074878;28;20470;-58
2021/12/10 10:31:39;;;;;;;45.63;28.45;;;154.40;2073.60;;;;;;5074841;28;20460;-59
2021/12/10 10:34:07;;;;;;;52.72;31.25;;;154.40;2073.60;;;;;;5074766;28;20059;-58
2021/12/10 10:36:35;;;;;;;72.95;41.20;;;154.40;2073.60;;;;;;5074757;28;20041;-59
2021/12/10 10:39:09;;;;;;;76.75;40.80;;;154.40;2073.60;;;;;;5074643;28;20032;-58
2021/12/10 10:41:37;;;;;;;62.03;33.92;;;154.40;2073.60;;;;;;5074453;28;20028;-59
2021/12/10 10:44:05;;;;;;;86.47;43.63;;;154.40;2073.60;;;;;;5074307;28;20048;-60
2021/12/10 10:46:33;;;;;;;74.50;39.58;;;154.40;2073.60;;;;;;5074348;28;20044;-57
2021/12/10 10:48:59;;;;;;;76.68;40.92;;;154.40;2073.60;;;;;;5074335;28;20107;-57
2021/12/10 10:51:53;;;;;;;65.65;37.75;;;154.40;2073.60;;;;;;5074489;28;20059;-60
2021/12/10 10:54:19;;;;;;;59.60;33.40;;;179.20;2048.00;;;;;;5071771;28;20044;-58
2021/12/10 10:56:47;;;;;;;44.55;28.63;;;179.20;2048.00;;;;;;5074073;28;20036;-60
2021/12/10 10:59:22;;;;;;;44.22;27.17;;;179.20;2048.00;;;;;;5074391;28;20028;-59
2021/12/10 11:01:59;;;;;;;39.03;23.55;;;154.50;2048.00;;;;;;5074262;28;20094;-59
2021/12/10 11:04:32;;;;;;;54.30;30.85;;;154.50;2048.00;;;;;;5074851;28;20331;-58
2021/12/10 11:07:09;;;;;;;44.58;27.00;;;154.50;2048.00;;;;;;5074283;28;20039;-60
2021/12/10 11:10:04;;;;;;;45.28;27.33;;;154.50;2073.60;;;;;;5073950;28;20024;-59
2021/12/10 11:12:36;;;;;;;43.53;27.08;;;154.50;2073.60;;;;;;5073959;28;20021;-59
2021/12/10 11:15:08;;;;;;;45.58;28.77;;;154.50;2073.60;;;;;;5073673;28;20028;-59
2021/12/10 11:17:51;;;;;;;49.17;29.17;;;154.40;2073.60;;;;;;5073816;28;20029;-57
2021/12/10 11:20:17;;;;;;;66.70;32.90;;;154.50;2048.00;;;;;;5073834;28;20474;-57
2021/12/10 11:22:52;;;;;;;53.17;29.40;;;154.40;2048.00;;;;;;5073930;28;20035;-57
2021/12/10 11:25:23;;;;;;;53.17;30.52;;;154.40;2048.00;;;;;;5074126;28;20017;-60
2021/12/10 11:27:49;;;;;;;50.42;30.58;;;154.40;2048.00;;;;;;5073866;28;20370;-57
2021/12/10 11:30:25;;;;;;;67.05;38.10;;;154.50;2048.00;;;;;;5074010;28;20525;-60
2021/12/10 11:32:52;;;;;;;61.15;36.20;;;154.50;2048.00;;;;;;5073709;28;20082;-58
2021/12/10 11:35:21;;;;;;;56.50;34.13;;;154.50;2048.00;;;;;;5073950;28;20521;-59
2021/12/10 11:38:05;;;;;;;54.85;30.35;;;154.50;2048.00;;;;;;5073755;28;20032;-60
2021/12/10 11:40:38;;;;;;;50.78;30.35;;;179.20;2022.40;;;;;;5073596;28;20496;-59
2021/12/10 11:43:43;;;;;;;50.92;30.88;;;154.50;2022.40;;;;;;5073662;28;20044;-59
2021/12/10 11:49:19;;;;;;;63.30;35.58;;;179.20;2022.40;;;;;;5073828;28;20043;-59
2021/12/10 11:51:46;;;;;;;56.45;33.38;;;179.30;2022.40;;;;;;5073566;28;20029;-57
2021/12/10 11:54:27;;;;;;;46.00;28.08;;;179.20;2022.40;;;;;;5073743;28;20035;-57
2021/12/10 11:57:10;;;;;;;44.92;29.23;;;179.30;2022.40;;;;;;5073388;28;20386;-57
2021/12/10 11:59:40;;;;;;;47.10;29.10;;;179.30;2022.40;;;;;;5073382;28;20021;-60
2021/12/10 12:02:19;;;;;;;49.65;29.20;;;179.20;2048.00;;;;;;5073418;28;20063;-57
2021/12/10 12:04:44;;;;;;;46.47;27.48;;;179.30;2022.40;;;;;;5073405;28;20108;-60
2021/12/10 12:07:15;;;;;;;42.92;26.27;;;179.30;2022.40;;;;;;5073583;28;20063;-59
2021/12/10 12:09:44;;;;;;;39.25;25.98;;;179.30;2022.40;;;;;;5073578;28;20020;-59
2021/12/10 12:12:17;;;;;;;62.75;35.50;;;179.30;2022.40;;;;;;5073347;28;20021;-57
2021/12/10 12:14:51;;;;;;;67.95;38.90;;;179.40;2022.40;;;;;;5055295;28;20469;-60
2021/12/10 12:17:37;;;;;;;72.25;42.78;;;179.40;2022.40;;;;;;5073189;28;20545;-59